sensor_id;sensor_type;location;lat;lon;timestamp;P1;durP1;ratioP1;P2;durP2;ratioP2
23555;SDS011;11956;53.184;8.578;2023-03-01T00:01:54;10.88;;;5.90;;
23555;SDS011;11956;53.184;8.578;2023-03-01T00:04:55;13.05;;;6.68;;
23555;SDS011;11956;53.184;8.578;2023-03-01T00:07:56;9.88;;;5.93;;
23555;SDS011;11956;53.184;8.578;2023-03-01T00:11:03;11.77;;;5.85;;
23555;SDS011;11956;53.184;8.578;2023-03-01T00:14:16;10.57;;;6.25;;
23555;SDS011;11956;53.184;8.578;2023-03-01T00:17:17;12.43;;;6.45;;
23555;SDS011;11956;53.184;8.578;2023-03-01T00:20:18;10.27;;;6.10;;
23555;SDS011;11956;53.184;8.578;2023-03-01T00:23:19;8.75;;;5.63;;
23555;SDS011;11956;53.184;8.578;2023-03-01T00:26:22;10.85;;;5.60;;
23555;SDS011;11956;53.184;8.578;2023-03-01T00:29:24;11.30;;;6.60;;
23555;SDS011;11956;53.184;8.578;2023-03-01T00:32:25;9.20;;;5.95;;
23555;SDS011;11956;53.184;8.578;2023-03-01T00:35:26;8.85;;;5.20;;
23555;SDS011;11956;53.184;8.578;2023-03-01T00:38:27;13.18;;;5.72;;
23555;SDS011;11956;53.184;8.578;2023-03-01T00:41:28;11.68;;;5.40;;
23555;SDS011;11956;53.184;8.578;2023-03-01T00:44:29;11.18;;;5.30;;
23555;SDS011;11956;53.184;8.578;2023-03-01T00:47:30;10.60;;;5.68;;
23555;SDS011;11956;53.184;8.578;2023-03-01T00:50:31;10.88;;;5.55;;
23555;SDS011;11956;53.184;8.578;2023-03-01T00:53:32;8.95;;;5.53;;
23555;SDS011;11956;53.184;8.578;2023-03-01T00:56:33;8.85;;;4.88;;
23555;SDS011;11956;53.184;8.578;2023-03-01T00:59:34;9.45;;;5.40;;
23555;SDS011;11956;53.184;8.578;2023-03-01T01:02:35;10.57;;;5.00;;
23555;SDS011;11956;53.184;8.578;2023-03-01T01:05:36;10.65;;;5.32;;
23555;SDS011;11956;53.184;8.578;2023-03-01T01:08:37;10.23;;;5.28;;
23555;SDS011;11956;53.184;8.578;2023-03-01T01:11:38;6.85;;;4.28;;
23555;SDS011;11956;53.184;8.578;2023-03-01T01:14:38;8.02;;;4.75;;
23555;SDS011;11956;53.184;8.578;2023-03-01T01:17:40;7.22;;;4.70;;
23555;SDS011;11956;53.184;8.578;2023-03-01T01:20:41;9.50;;;5.00;;
23555;SDS011;11956;53.184;8.578;2023-03-01T01:23:42;8.93;;;5.55;;
23555;SDS011;11956;53.184;8.578;2023-03-01T01:26:44;8.80;;;4.80;;
23555;SDS011;11956;53.184;8.578;2023-03-01T01:29:46;10.63;;;5.90;;
23555;SDS011;11956;53.184;8.578;2023-03-01T01:32:47;9.85;;;5.25;;
23555;SDS011;11956;53.184;8.578;2023-03-01T01:35:48;9.80;;;5.03;;
23555;SDS011;11956;53.184;8.578;2023-03-01T01:38:49;10.85;;;5.25;;
23555;SDS011;11956;53.184;8.578;2023-03-01T01:41:50;9.18;;;5.13;;
23555;SDS011;11956;53.184;8.578;2023-03-01T01:48:43;9.45;;;5.45;;
23555;SDS011;11956;53.184;8.578;2023-03-01T01:51:48;9.35;;;4.90;;
23555;SDS011;11956;53.184;8.578;2023-03-01T01:55:02;8.70;;;5.28;;
23555;SDS011;11956;53.184;8.578;2023-03-01T01:58:16;10.23;;;5.13;;
23555;SDS011;11956;53.184;8.578;2023-03-01T02:01:19;10.13;;;5.35;;
23555;SDS011;11956;53.184;8.578;2023-03-01T02:04:20;8.32;;;5.05;;
23555;SDS011;11956;53.184;8.578;2023-03-01T02:07:22;11.55;;;5.43;;
23555;SDS011;11956;53.184;8.578;2023-03-01T02:10:25;8.35;;;5.05;;
23555;SDS011;11956;53.184;8.578;2023-03-01T02:13:28;11.38;;;5.53;;
23555;SDS011;11956;53.184;8.578;2023-03-01T02:16:30;11.13;;;5.35;;
23555;SDS011;11956;53.184;8.578;2023-03-01T02:19:51;9.48;;;5.00;;
23555;SDS011;11956;53.184;8.578;2023-03-01T02:22:53;9.32;;;5.47;;
23555;SDS011;11956;53.184;8.578;2023-03-01T02:29:24;9.88;;;5.15;;
23555;SDS011;11956;53.184;8.578;2023-03-01T02:32:25;7.97;;;4.70;;
23555;SDS011;11956;53.184;8.578;2023-03-01T02:35:26;10.00;;;5.80;;
23555;SDS011;11956;53.184;8.578;2023-03-01T02:38:28;9.63;;;5.45;;
23555;SDS011;11956;53.184;8.578;2023-03-01T02:41:30;9.07;;;5.10;;
23555;SDS011;11956;53.184;8.578;2023-03-01T02:44:36;9.18;;;5.45;;
23555;SDS011;11956;53.184;8.578;2023-03-01T02:47:37;8.57;;;5.00;;
23555;SDS011;11956;53.184;8.578;2023-03-01T02:57:30;8.25;;;4.82;;
23555;SDS011;11956;53.184;8.578;2023-03-01T03:03:40;9.32;;;5.07;;
23555;SDS011;11956;53.184;8.578;2023-03-01T03:06:43;9.85;;;5.95;;
23555;SDS011;11956;53.184;8.578;2023-03-01T03:09:45;9.43;;;5.15;;
23555;SDS011;11956;53.184;8.578;2023-03-01T03:12:50;13.18;;;5.70;;
23555;SDS011;11956;53.184;8.578;2023-03-01T03:15:55;9.40;;;5.25;;
23555;SDS011;11956;53.184;8.578;2023-03-01T03:18:57;10.93;;;5.70;;
23555;SDS011;11956;53.184;8.578;2023-03-01T03:22:04;8.35;;;5.47;;
23555;SDS011;11956;53.184;8.578;2023-03-01T03:25:08;11.82;;;6.00;;
23555;SDS011;11956;53.184;8.578;2023-03-01T03:28:10;9.27;;;6.03;;
23555;SDS011;11956;53.184;8.578;2023-03-01T03:31:11;9.05;;;5.43;;
23555;SDS011;11956;53.184;8.578;2023-03-01T03:34:12;10.65;;;5.90;;
23555;SDS011;11956;53.184;8.578;2023-03-01T03:37:17;8.27;;;5.47;;
23555;SDS011;11956;53.184;8.578;2023-03-01T03:40:40;8.40;;;5.47;;
23555;SDS011;11956;53.184;8.578;2023-03-01T03:43:44;12.93;;;6.07;;
23555;SDS011;11956;53.184;8.578;2023-03-01T03:46:45;12.68;;;5.80;;
23555;SDS011;11956;53.184;8.578;2023-03-01T03:49:46;9.48;;;5.72;;
23555;SDS011;11956;53.184;8.578;2023-03-01T03:52:47;9.30;;;5.80;;
23555;SDS011;11956;53.184;8.578;2023-03-01T03:55:48;9.68;;;6.07;;
23555;SDS011;11956;53.184;8.578;2023-03-01T03:58:52;10.70;;;6.50;;
23555;SDS011;11956;53.184;8.578;2023-03-01T04:01:53;10.07;;;5.72;;
23555;SDS011;11956;53.184;8.578;2023-03-01T04:04:54;11.18;;;6.32;;
23555;SDS011;11956;53.184;8.578;2023-03-01T04:07:55;10.50;;;6.53;;
23555;SDS011;11956;53.184;8.578;2023-03-01T04:11:03;10.60;;;6.03;;
23555;SDS011;11956;53.184;8.578;2023-03-01T04:14:23;12.05;;;6.32;;
23555;SDS011;11956;53.184;8.578;2023-03-01T04:17:24;11.40;;;6.18;;
23555;SDS011;11956;53.184;8.578;2023-03-01T04:20:29;9.50;;;6.00;;
23555;SDS011;11956;53.184;8.578;2023-03-01T04:23:34;10.10;;;5.97;;
23555;SDS011;11956;53.184;8.578;2023-03-01T04:26:36;11.55;;;5.88;;
23555;SDS011;11956;53.184;8.578;2023-03-01T04:29:36;11.40;;;6.13;;
23555;SDS011;11956;53.184;8.578;2023-03-01T04:32:37;11.20;;;6.00;;
23555;SDS011;11956;53.184;8.578;2023-03-01T04:35:38;10.95;;;6.35;;
23555;SDS011;11956;53.184;8.578;2023-03-01T04:38:40;11.15;;;6.20;;
23555;SDS011;11956;53.184;8.578;2023-03-01T04:41:42;11.00;;;6.65;;
23555;SDS011;11956;53.184;8.578;2023-03-01T04:44:45;10.20;;;5.90;;
23555;SDS011;11956;53.184;8.578;2023-03-01T04:47:46;10.40;;;6.55;;
23555;SDS011;11956;53.184;8.578;2023-03-01T04:50:48;10.32;;;6.38;;
23555;SDS011;11956;53.184;8.578;2023-03-01T04:53:49;14.43;;;7.20;;
23555;SDS011;11956;53.184;8.578;2023-03-01T04:56:50;13.40;;;7.32;;
23555;SDS011;11956;53.184;8.578;2023-03-01T04:59:50;12.23;;;6.45;;
23555;SDS011;11956;53.184;8.578;2023-03-01T05:02:56;12.90;;;6.93;;
23555;SDS011;11956;53.184;8.578;2023-03-01T05:06:00;14.55;;;7.35;;
23555;SDS011;11956;53.184;8.578;2023-03-01T05:09:00;12.73;;;7.47;;
23555;SDS011;11956;53.184;8.578;2023-03-01T05:12:01;11.27;;;7.10;;
23555;SDS011;11956;53.184;8.578;2023-03-01T05:15:03;14.85;;;7.28;;
23555;SDS011;11956;53.184;8.578;2023-03-01T05:18:07;12.18;;;7.15;;
23555;SDS011;11956;53.184;8.578;2023-03-01T05:21:12;14.95;;;7.78;;
23555;SDS011;11956;53.184;8.578;2023-03-01T05:24:16;13.63;;;8.00;;
23555;SDS011;11956;53.184;8.578;2023-03-01T05:27:17;17.90;;;8.70;;
23555;SDS011;11956;53.184;8.578;2023-03-01T05:30:18;13.68;;;7.75;;
23555;SDS011;11956;53.184;8.578;2023-03-01T05:33:19;11.95;;;6.93;;
23555;SDS011;11956;53.184;8.578;2023-03-01T05:36:22;13.10;;;7.07;;
23555;SDS011;11956;53.184;8.578;2023-03-01T05:39:23;12.05;;;6.80;;
23555;SDS011;11956;53.184;8.578;2023-03-01T05:42:26;14.30;;;7.63;;
23555;SDS011;11956;53.184;8.578;2023-03-01T05:45:27;13.20;;;7.65;;
23555;SDS011;11956;53.184;8.578;2023-03-01T05:48:28;17.02;;;7.50;;
23555;SDS011;11956;53.184;8.578;2023-03-01T05:51:29;14.10;;;7.40;;
23555;SDS011;11956;53.184;8.578;2023-03-01T05:54:30;12.50;;;7.30;;
23555;SDS011;11956;53.184;8.578;2023-03-01T05:57:31;12.25;;;6.80;;
23555;SDS011;11956;53.184;8.578;2023-03-01T06:00:32;11.63;;;6.75;;
23555;SDS011;11956;53.184;8.578;2023-03-01T06:03:34;16.80;;;7.88;;
23555;SDS011;11956;53.184;8.578;2023-03-01T06:06:36;13.93;;;8.27;;
23555;SDS011;11956;53.184;8.578;2023-03-01T06:09:38;14.27;;;7.55;;
23555;SDS011;11956;53.184;8.578;2023-03-01T06:12:39;13.35;;;7.15;;
23555;SDS011;11956;53.184;8.578;2023-03-01T06:15:42;11.82;;;7.13;;
23555;SDS011;11956;53.184;8.578;2023-03-01T06:18:43;14.00;;;7.93;;
23555;SDS011;11956;53.184;8.578;2023-03-01T06:21:43;14.40;;;7.88;;
23555;SDS011;11956;53.184;8.578;2023-03-01T06:24:44;15.48;;;8.38;;
23555;SDS011;11956;53.184;8.578;2023-03-01T06:27:45;12.15;;;7.38;;
23555;SDS011;11956;53.184;8.578;2023-03-01T06:30:46;16.90;;;7.70;;
23555;SDS011;11956;53.184;8.578;2023-03-01T06:33:48;13.00;;;6.68;;
23555;SDS011;11956;53.184;8.578;2023-03-01T06:36:49;11.98;;;7.28;;
23555;SDS011;11956;53.184;8.578;2023-03-01T06:39:49;14.27;;;7.55;;
23555;SDS011;11956;53.184;8.578;2023-03-01T06:42:50;13.23;;;7.53;;
23555;SDS011;11956;53.184;8.578;2023-03-01T06:45:51;12.85;;;7.18;;
23555;SDS011;11956;53.184;8.578;2023-03-01T06:48:52;14.15;;;7.63;;
23555;SDS011;11956;53.184;8.578;2023-03-01T06:51:53;11.90;;;7.07;;
23555;SDS011;11956;53.184;8.578;2023-03-01T06:54:54;16.08;;;7.43;;
23555;SDS011;11956;53.184;8.578;2023-03-01T06:57:56;9.68;;;6.20;;
23555;SDS011;11956;53.184;8.578;2023-03-01T07:00:59;10.95;;;6.20;;
23555;SDS011;11956;53.184;8.578;2023-03-01T07:04:00;10.70;;;6.25;;
23555;SDS011;11956;53.184;8.578;2023-03-01T07:07:01;10.27;;;6.13;;
23555;SDS011;11956;53.184;8.578;2023-03-01T07:10:02;14.38;;;6.60;;
23555;SDS011;11956;53.184;8.578;2023-03-01T07:13:03;10.68;;;6.25;;
23555;SDS011;11956;53.184;8.578;2023-03-01T07:16:06;12.52;;;6.70;;
23555;SDS011;11956;53.184;8.578;2023-03-01T07:19:08;9.90;;;6.53;;
23555;SDS011;11956;53.184;8.578;2023-03-01T07:22:09;12.52;;;6.65;;
23555;SDS011;11956;53.184;8.578;2023-03-01T07:25:10;10.30;;;6.75;;
23555;SDS011;11956;53.184;8.578;2023-03-01T07:28:11;13.63;;;7.03;;
23555;SDS011;11956;53.184;8.578;2023-03-01T07:31:12;10.85;;;6.60;;
23555;SDS011;11956;53.184;8.578;2023-03-01T07:34:13;10.27;;;6.32;;
23555;SDS011;11956;53.184;8.578;2023-03-01T07:37:14;11.25;;;6.43;;
23555;SDS011;11956;53.184;8.578;2023-03-01T07:40:15;10.25;;;5.63;;
23555;SDS011;11956;53.184;8.578;2023-03-01T07:43:16;11.55;;;6.18;;
23555;SDS011;11956;53.184;8.578;2023-03-01T07:46:16;12.55;;;6.47;;
23555;SDS011;11956;53.184;8.578;2023-03-01T07:49:19;13.40;;;6.90;;
23555;SDS011;11956;53.184;8.578;2023-03-01T07:52:20;9.95;;;6.57;;
23555;SDS011;11956;53.184;8.578;2023-03-01T07:55:21;10.70;;;6.15;;
23555;SDS011;11956;53.184;8.578;2023-03-01T07:58:22;14.93;;;7.32;;
23555;SDS011;11956;53.184;8.578;2023-03-01T08:01:22;12.75;;;6.70;;
23555;SDS011;11956;53.184;8.578;2023-03-01T08:04:23;11.77;;;6.03;;
23555;SDS011;11956;53.184;8.578;2023-03-01T08:10:28;13.20;;;7.57;;
23555;SDS011;11956;53.184;8.578;2023-03-01T08:13:29;14.68;;;7.80;;
23555;SDS011;11956;53.184;8.578;2023-03-01T08:16:30;14.88;;;7.63;;
23555;SDS011;11956;53.184;8.578;2023-03-01T08:19:33;11.82;;;6.80;;
23555;SDS011;11956;53.184;8.578;2023-03-01T08:22:34;9.70;;;6.30;;
23555;SDS011;11956;53.184;8.578;2023-03-01T08:25:36;10.10;;;5.70;;
23555;SDS011;11956;53.184;8.578;2023-03-01T08:28:37;10.45;;;7.20;;
23555;SDS011;11956;53.184;8.578;2023-03-01T08:31:39;10.15;;;6.60;;
23555;SDS011;11956;53.184;8.578;2023-03-01T08:34:40;10.65;;;7.03;;
23555;SDS011;11956;53.184;8.578;2023-03-01T08:37:41;10.95;;;7.20;;
23555;SDS011;11956;53.184;8.578;2023-03-01T08:40:42;12.55;;;7.40;;
23555;SDS011;11956;53.184;8.578;2023-03-01T08:43:43;8.02;;;6.30;;
23555;SDS011;11956;53.184;8.578;2023-03-01T08:46:44;11.20;;;7.30;;
23555;SDS011;11956;53.184;8.578;2023-03-01T08:49:50;9.75;;;6.88;;
23555;SDS011;11956;53.184;8.578;2023-03-01T08:52:51;8.95;;;7.13;;
23555;SDS011;11956;53.184;8.578;2023-03-01T08:55:52;12.55;;;7.07;;
23555;SDS011;11956;53.184;8.578;2023-03-01T08:58:52;10.40;;;7.15;;
23555;SDS011;11956;53.184;8.578;2023-03-01T09:01:53;10.95;;;6.65;;
23555;SDS011;11956;53.184;8.578;2023-03-01T09:04:54;12.43;;;7.32;;
23555;SDS011;11956;53.184;8.578;2023-03-01T09:07:56;10.88;;;6.93;;
23555;SDS011;11956;53.184;8.578;2023-03-01T09:10:57;9.00;;;5.82;;
23555;SDS011;11956;53.184;8.578;2023-03-01T09:14:04;15.13;;;6.93;;
23555;SDS011;11956;53.184;8.578;2023-03-01T09:20:06;8.98;;;6.18;;
23555;SDS011;11956;53.184;8.578;2023-03-01T09:23:08;10.73;;;6.50;;
23555;SDS011;11956;53.184;8.578;2023-03-01T09:26:10;10.90;;;7.25;;
23555;SDS011;11956;53.184;8.578;2023-03-01T09:29:16;9.40;;;6.30;;
23555;SDS011;11956;53.184;8.578;2023-03-01T09:32:17;11.48;;;7.05;;
23555;SDS011;11956;53.184;8.578;2023-03-01T09:35:18;9.35;;;6.68;;
23555;SDS011;11956;53.184;8.578;2023-03-01T09:38:20;9.43;;;6.90;;
23555;SDS011;11956;53.184;8.578;2023-03-01T09:44:47;9.98;;;6.03;;
23555;SDS011;11956;53.184;8.578;2023-03-01T09:48:06;8.20;;;5.35;;
23555;SDS011;11956;53.184;8.578;2023-03-01T09:51:27;9.43;;;4.78;;
23555;SDS011;11956;53.184;8.578;2023-03-01T09:54:32;6.22;;;4.50;;
23555;SDS011;11956;53.184;8.578;2023-03-01T09:57:36;7.13;;;4.45;;
23555;SDS011;11956;53.184;8.578;2023-03-01T10:00:49;7.28;;;4.93;;
23555;SDS011;11956;53.184;8.578;2023-03-01T10:11:37;6.80;;;4.95;;
23555;SDS011;11956;53.184;8.578;2023-03-01T10:14:56;8.93;;;5.43;;
23555;SDS011;11956;53.184;8.578;2023-03-01T10:18:16;6.57;;;4.30;;
23555;SDS011;11956;53.184;8.578;2023-03-01T10:21:23;5.32;;;4.28;;
23555;SDS011;11956;53.184;8.578;2023-03-01T10:24:23;5.05;;;4.05;;
23555;SDS011;11956;53.184;8.578;2023-03-01T10:27:25;5.07;;;3.65;;
23555;SDS011;11956;53.184;8.578;2023-03-01T10:30:39;5.25;;;4.20;;
23555;SDS011;11956;53.184;8.578;2023-03-01T10:33:42;14.10;;;5.47;;
23555;SDS011;11956;53.184;8.578;2023-03-01T10:36:44;6.60;;;5.15;;
23555;SDS011;11956;53.184;8.578;2023-03-01T10:39:54;6.15;;;5.47;;
23555;SDS011;11956;53.184;8.578;2023-03-01T10:42:57;7.95;;;6.50;;
23555;SDS011;11956;53.184;8.578;2023-03-01T10:46:01;14.85;;;7.40;;
23555;SDS011;11956;53.184;8.578;2023-03-01T10:49:05;8.40;;;7.50;;
23555;SDS011;11956;53.184;8.578;2023-03-01T10:52:21;8.88;;;6.90;;
23555;SDS011;11956;53.184;8.578;2023-03-01T10:55:27;9.15;;;8.25;;
23555;SDS011;11956;53.184;8.578;2023-03-01T10:58:39;11.35;;;9.52;;
23555;SDS011;11956;53.184;8.578;2023-03-01T11:05:19;12.88;;;11.18;;
23555;SDS011;11956;53.184;8.578;2023-03-01T11:11:44;13.95;;;11.27;;
23555;SDS011;11956;53.184;8.578;2023-03-01T11:14:49;14.40;;;11.35;;
23555;SDS011;11956;53.184;8.578;2023-03-01T11:17:54;16.25;;;12.57;;
23555;SDS011;11956;53.184;8.578;2023-03-01T11:20:56;17.83;;;12.90;;
23555;SDS011;11956;53.184;8.578;2023-03-01T11:24:01;15.40;;;12.63;;
23555;SDS011;11956;53.184;8.578;2023-03-01T11:27:05;15.95;;;12.20;;
23555;SDS011;11956;53.184;8.578;2023-03-01T11:30:37;15.52;;;13.07;;
23555;SDS011;11956;53.184;8.578;2023-03-01T11:37:01;19.75;;;14.23;;
23555;SDS011;11956;53.184;8.578;2023-03-01T11:40:27;19.13;;;14.25;;
23555;SDS011;11956;53.184;8.578;2023-03-01T11:43:52;19.55;;;14.93;;
23555;SDS011;11956;53.184;8.578;2023-03-01T11:50:44;20.65;;;14.77;;
23555;SDS011;11956;53.184;8.578;2023-03-01T12:11:01;16.88;;;13.48;;
23555;SDS011;11956;53.184;8.578;2023-03-01T12:38:42;17.30;;;14.10;;
23555;SDS011;11956;53.184;8.578;2023-03-01T12:41:53;19.33;;;15.13;;
23555;SDS011;11956;53.184;8.578;2023-03-01T12:49:17;18.27;;;14.35;;
23555;SDS011;11956;53.184;8.578;2023-03-01T12:56:14;17.98;;;14.40;;
23555;SDS011;11956;53.184;8.578;2023-03-01T13:09:44;21.73;;;15.93;;
23555;SDS011;11956;53.184;8.578;2023-03-01T13:13:12;20.35;;;14.95;;
23555;SDS011;11956;53.184;8.578;2023-03-01T13:19:29;18.42;;;14.82;;
23555;SDS011;11956;53.184;8.578;2023-03-01T13:22:32;20.47;;;15.10;;
23555;SDS011;11956;53.184;8.578;2023-03-01T13:25:33;18.67;;;14.45;;
23555;SDS011;11956;53.184;8.578;2023-03-01T13:34:43;19.60;;;14.68;;
23555;SDS011;11956;53.184;8.578;2023-03-01T13:37:46;21.20;;;15.07;;
23555;SDS011;11956;53.184;8.578;2023-03-01T13:43:51;20.08;;;14.85;;
23555;SDS011;11956;53.184;8.578;2023-03-01T13:50:16;20.00;;;15.23;;
23555;SDS011;11956;53.184;8.578;2023-03-01T13:53:25;20.45;;;14.50;;
23555;SDS011;11956;53.184;8.578;2023-03-01T13:56:36;18.15;;;14.32;;
23555;SDS011;11956;53.184;8.578;2023-03-01T13:59:46;17.35;;;13.10;;
23555;SDS011;11956;53.184;8.578;2023-03-01T14:02:58;19.40;;;14.70;;
23555;SDS011;11956;53.184;8.578;2023-03-01T14:09:19;18.55;;;14.05;;
23555;SDS011;11956;53.184;8.578;2023-03-01T14:19:29;20.40;;;15.05;;
23555;SDS011;11956;53.184;8.578;2023-03-01T14:22:32;20.83;;;15.85;;
23555;SDS011;11956;53.184;8.578;2023-03-01T14:25:35;20.42;;;14.05;;
23555;SDS011;11956;53.184;8.578;2023-03-01T14:28:38;20.65;;;15.38;;
23555;SDS011;11956;53.184;8.578;2023-03-01T14:31:42;21.67;;;15.23;;
23555;SDS011;11956;53.184;8.578;2023-03-01T14:34:44;23.40;;;15.88;;
23555;SDS011;11956;53.184;8.578;2023-03-01T14:37:47;20.48;;;15.13;;
23555;SDS011;11956;53.184;8.578;2023-03-01T14:40:51;21.52;;;15.70;;
23555;SDS011;11956;53.184;8.578;2023-03-01T14:43:58;20.70;;;14.55;;
23555;SDS011;11956;53.184;8.578;2023-03-01T14:47:06;22.38;;;15.30;;
23555;SDS011;11956;53.184;8.578;2023-03-01T14:50:26;22.45;;;15.25;;
23555;SDS011;11956;53.184;8.578;2023-03-01T14:53:30;21.73;;;15.18;;
23555;SDS011;11956;53.184;8.578;2023-03-01T14:56:42;21.67;;;16.42;;
23555;SDS011;11956;53.184;8.578;2023-03-01T14:59:45;23.42;;;16.20;;
23555;SDS011;11956;53.184;8.578;2023-03-01T15:02:48;21.35;;;14.65;;
23555;SDS011;11956;53.184;8.578;2023-03-01T15:05:52;18.55;;;14.20;;
23555;SDS011;11956;53.184;8.578;2023-03-01T15:08:54;20.17;;;14.70;;
23555;SDS011;11956;53.184;8.578;2023-03-01T15:11:56;23.63;;;15.23;;
23555;SDS011;11956;53.184;8.578;2023-03-01T15:14:57;23.60;;;16.90;;
23555;SDS011;11956;53.184;8.578;2023-03-01T15:18:11;22.10;;;17.02;;
23555;SDS011;11956;53.184;8.578;2023-03-01T15:21:18;24.55;;;16.92;;
23555;SDS011;11956;53.184;8.578;2023-03-01T15:24:24;22.35;;;16.50;;
23555;SDS011;11956;53.184;8.578;2023-03-01T15:27:27;24.08;;;17.25;;
23555;SDS011;11956;53.184;8.578;2023-03-01T15:30:35;24.92;;;17.25;;
23555;SDS011;11956;53.184;8.578;2023-03-01T15:33:37;24.35;;;16.40;;
23555;SDS011;11956;53.184;8.578;2023-03-01T15:39:55;24.50;;;16.38;;
23555;SDS011;11956;53.184;8.578;2023-03-01T15:42:58;23.10;;;14.80;;
23555;SDS011;11956;53.184;8.578;2023-03-01T15:46:00;21.08;;;15.45;;
23555;SDS011;11956;53.184;8.578;2023-03-01T15:49:02;22.85;;;15.95;;
23555;SDS011;11956;53.184;8.578;2023-03-01T15:52:09;25.88;;;16.80;;
23555;SDS011;11956;53.184;8.578;2023-03-01T15:55:21;24.88;;;16.80;;
23555;SDS011;11956;53.184;8.578;2023-03-01T15:58:29;22.95;;;16.08;;
23555;SDS011;11956;53.184;8.578;2023-03-01T16:01:30;23.60;;;16.35;;
23555;SDS011;11956;53.184;8.578;2023-03-01T16:04:34;24.50;;;17.00;;
23555;SDS011;11956;53.184;8.578;2023-03-01T16:07:35;24.17;;;16.35;;
23555;SDS011;11956;53.184;8.578;2023-03-01T16:10:40;22.42;;;15.63;;
23555;SDS011;11956;53.184;8.578;2023-03-01T16:13:43;24.27;;;16.75;;
23555;SDS011;11956;53.184;8.578;2023-03-01T16:16:45;24.67;;;17.23;;
23555;SDS011;11956;53.184;8.578;2023-03-01T16:19:48;23.02;;;16.42;;
23555;SDS011;11956;53.184;8.578;2023-03-01T16:22:48;26.13;;;17.20;;
23555;SDS011;11956;53.184;8.578;2023-03-01T16:25:50;26.20;;;16.92;;
23555;SDS011;11956;53.184;8.578;2023-03-01T16:28:53;23.10;;;15.80;;
23555;SDS011;11956;53.184;8.578;2023-03-01T16:31:56;27.27;;;17.70;;
23555;SDS011;11956;53.184;8.578;2023-03-01T16:35:01;26.23;;;17.60;;
23555;SDS011;11956;53.184;8.578;2023-03-01T16:38:01;25.48;;;17.30;;
23555;SDS011;11956;53.184;8.578;2023-03-01T16:41:03;27.52;;;17.83;;
23555;SDS011;11956;53.184;8.578;2023-03-01T16:44:04;23.63;;;15.82;;
23555;SDS011;11956;53.184;8.578;2023-03-01T16:47:05;24.65;;;17.17;;
23555;SDS011;11956;53.184;8.578;2023-03-01T16:50:06;25.83;;;16.50;;
23555;SDS011;11956;53.184;8.578;2023-03-01T16:53:08;28.40;;;17.85;;
23555;SDS011;11956;53.184;8.578;2023-03-01T16:56:10;26.92;;;16.75;;
23555;SDS011;11956;53.184;8.578;2023-03-01T16:59:12;27.08;;;17.13;;
23555;SDS011;11956;53.184;8.578;2023-03-01T17:02:13;24.88;;;16.10;;
23555;SDS011;11956;53.184;8.578;2023-03-01T17:05:19;25.60;;;17.40;;
23555;SDS011;11956;53.184;8.578;2023-03-01T17:08:23;26.10;;;16.40;;
23555;SDS011;11956;53.184;8.578;2023-03-01T17:11:24;24.17;;;16.17;;
23555;SDS011;11956;53.184;8.578;2023-03-01T17:14:25;24.77;;;16.58;;
23555;SDS011;11956;53.184;8.578;2023-03-01T17:17:26;28.45;;;17.58;;
23555;SDS011;11956;53.184;8.578;2023-03-01T17:20:27;27.63;;;17.35;;
23555;SDS011;11956;53.184;8.578;2023-03-01T17:23:28;24.85;;;16.58;;
23555;SDS011;11956;53.184;8.578;2023-03-01T17:26:30;27.05;;;16.65;;
23555;SDS011;11956;53.184;8.578;2023-03-01T17:29:31;31.90;;;17.55;;
23555;SDS011;11956;53.184;8.578;2023-03-01T17:32:32;31.55;;;17.45;;
23555;SDS011;11956;53.184;8.578;2023-03-01T17:35:33;25.50;;;17.00;;
23555;SDS011;11956;53.184;8.578;2023-03-01T17:38:36;26.40;;;16.23;;
23555;SDS011;11956;53.184;8.578;2023-03-01T17:41:37;25.75;;;17.15;;
23555;SDS011;11956;53.184;8.578;2023-03-01T17:44:38;31.45;;;19.50;;
23555;SDS011;11956;53.184;8.578;2023-03-01T17:47:39;29.17;;;18.65;;
23555;SDS011;11956;53.184;8.578;2023-03-01T17:50:40;29.85;;;19.60;;
23555;SDS011;11956;53.184;8.578;2023-03-01T17:53:41;33.40;;;20.83;;
23555;SDS011;11956;53.184;8.578;2023-03-01T17:56:42;34.28;;;21.05;;
23555;SDS011;11956;53.184;8.578;2023-03-01T17:59:42;31.00;;;20.52;;
23555;SDS011;11956;53.184;8.578;2023-03-01T18:02:43;34.70;;;21.08;;
23555;SDS011;11956;53.184;8.578;2023-03-01T18:05:44;31.33;;;20.52;;
23555;SDS011;11956;53.184;8.578;2023-03-01T18:08:45;33.25;;;20.08;;
23555;SDS011;11956;53.184;8.578;2023-03-01T18:11:47;31.85;;;20.65;;
23555;SDS011;11956;53.184;8.578;2023-03-01T18:14:48;41.03;;;24.17;;
23555;SDS011;11956;53.184;8.578;2023-03-01T18:17:52;40.67;;;24.15;;
23555;SDS011;11956;53.184;8.578;2023-03-01T18:20:55;35.97;;;23.27;;
23555;SDS011;11956;53.184;8.578;2023-03-01T18:23:59;41.58;;;24.98;;
23555;SDS011;11956;53.184;8.578;2023-03-01T18:27:00;39.90;;;23.42;;
23555;SDS011;11956;53.184;8.578;2023-03-01T18:30:02;40.50;;;23.70;;
23555;SDS011;11956;53.184;8.578;2023-03-01T18:33:05;36.67;;;22.30;;
23555;SDS011;11956;53.184;8.578;2023-03-01T18:36:12;39.15;;;23.08;;
23555;SDS011;11956;53.184;8.578;2023-03-01T18:39:20;42.17;;;24.42;;
23555;SDS011;11956;53.184;8.578;2023-03-01T18:42:22;40.38;;;23.35;;
23555;SDS011;11956;53.184;8.578;2023-03-01T18:45:23;47.47;;;24.65;;
23555;SDS011;11956;53.184;8.578;2023-03-01T18:48:24;48.58;;;25.85;;
23555;SDS011;11956;53.184;8.578;2023-03-01T18:51:25;57.22;;;30.15;;
23555;SDS011;11956;53.184;8.578;2023-03-01T18:54:28;48.17;;;25.50;;
23555;SDS011;11956;53.184;8.578;2023-03-01T18:57:29;53.13;;;27.75;;
23555;SDS011;11956;53.184;8.578;2023-03-01T19:00:31;50.58;;;26.30;;
23555;SDS011;11956;53.184;8.578;2023-03-01T19:03:33;44.40;;;24.42;;
23555;SDS011;11956;53.184;8.578;2023-03-01T19:06:34;48.70;;;24.88;;
23555;SDS011;11956;53.184;8.578;2023-03-01T19:09:37;46.75;;;24.60;;
23555;SDS011;11956;53.184;8.578;2023-03-01T19:12:39;49.45;;;25.23;;
23555;SDS011;11956;53.184;8.578;2023-03-01T19:15:40;51.10;;;25.00;;
23555;SDS011;11956;53.184;8.578;2023-03-01T19:18:41;50.33;;;25.10;;
23555;SDS011;11956;53.184;8.578;2023-03-01T19:21:49;57.70;;;26.58;;
23555;SDS011;11956;53.184;8.578;2023-03-01T19:24:49;54.40;;;26.02;;
23555;SDS011;11956;53.184;8.578;2023-03-01T19:27:50;47.03;;;24.42;;
23555;SDS011;11956;53.184;8.578;2023-03-01T19:30:56;49.15;;;24.67;;
23555;SDS011;11956;53.184;8.578;2023-03-01T19:34:08;50.63;;;24.63;;
23555;SDS011;11956;53.184;8.578;2023-03-01T19:37:09;50.78;;;25.30;;
23555;SDS011;11956;53.184;8.578;2023-03-01T19:40:10;49.78;;;24.48;;
23555;SDS011;11956;53.184;8.578;2023-03-01T19:43:11;47.03;;;23.85;;
23555;SDS011;11956;53.184;8.578;2023-03-01T19:46:12;46.72;;;24.05;;
23555;SDS011;11956;53.184;8.578;2023-03-01T19:49:15;48.83;;;24.33;;
23555;SDS011;11956;53.184;8.578;2023-03-01T19:52:16;52.88;;;24.75;;
23555;SDS011;11956;53.184;8.578;2023-03-01T19:55:17;49.05;;;24.02;;
23555;SDS011;11956;53.184;8.578;2023-03-01T19:58:18;57.25;;;26.52;;
23555;SDS011;11956;53.184;8.578;2023-03-01T20:01:19;53.65;;;25.35;;
23555;SDS011;11956;53.184;8.578;2023-03-01T20:04:21;56.60;;;26.25;;
23555;SDS011;11956;53.184;8.578;2023-03-01T20:07:22;51.60;;;25.63;;
23555;SDS011;11956;53.184;8.578;2023-03-01T20:10:23;56.70;;;27.40;;
23555;SDS011;11956;53.184;8.578;2023-03-01T20:13:25;54.55;;;26.25;;
23555;SDS011;11956;53.184;8.578;2023-03-01T20:16:26;57.20;;;27.23;;
23555;SDS011;11956;53.184;8.578;2023-03-01T20:19:27;59.38;;;26.60;;
23555;SDS011;11956;53.184;8.578;2023-03-01T20:22:28;62.13;;;28.45;;